Data for 11/21/2017

Time Sea-Level Adjusted Pressure Absolute Pressure Temperature Relative Humidity Dew Point   
(mb) (inHg) (mb) (inHg) (C) (F) (%) (C) (F)
00:05 1020 30.12 849 25.07 3 37.5 83 0.5 32.9
00:10 1020 30.12 849 25.07 3 37.4 84 0.5 32.9
00:15 1020 30.12 849 25.07 3 37.4 84 0.5 32.9
00:20 1020 30.12 849 25.07 2.9 37.3 84 0.4 32.8
00:25 1020 30.12 849 25.07 3 37.4 83 0.4 32.8
00:30 1020 30.12 849 25.07 3 37.4 83 0.4 32.7
00:35 1020 30.12 849 25.07 3 37.4 83 0.4 32.7
00:40 1020 30.12 849 25.07 3 37.3 83 0.3 32.6
00:45 1020 30.12 850 25.1 2.9 37.3 82 0.2 32.3
00:50 1021 30.15 850 25.1 3.1 37.6 81 0.2 32.3
00:55 1021 30.15 850 25.1 3.2 37.7 81 0.3 32.5
01:00 1021 30.15 850 25.1 3.2 37.7 80 0.1 32.1
01:05 1021 30.15 850 25.1 3.2 37.8 79 0 32.1
01:10 1021 30.15 850 25.1 3.2 37.8 80 0.2 32.4
01:15 1021 30.15 850 25.1 3.1 37.5 81 0.1 32.1
01:20 1021 30.15 850 25.1 3 37.4 80 -0.1 31.8
01:25 1021 30.15 850 25.1 3.1 37.5 79 -0.3 31.5
01:30 1021 30.15 851 25.13 3.3 37.9 77 -0.4 31.3
01:35 1021 30.15 851 25.13 3.3 38 78 -0.2 31.6
01:40 1022 30.18 851 25.13 3.4 38.1 75 -0.7 30.8
01:45 1022 30.18 851 25.13 3.5 38.2 76 -0.4 31.3
01:50 1022 30.18 851 25.13 3.3 38 76 -0.6 31
01:55 1022 30.18 851 25.13 3.4 38 74 -0.9 30.4
02:00 1022 30.18 851 25.13 3.6 38.5 73 -0.8 30.5
02:05 1022 30.18 851 25.13 3.8 38.8 72 -0.8 30.6
02:10 1022 30.18 851 25.13 3.9 38.9 71 -0.8 30.5
02:15 1022 30.18 851 25.13 3.8 38.8 72 -0.8 30.6
02:20 1022 30.18 851 25.13 3.6 38.5 72 -1 30.1
02:25 1022 30.18 851 25.13 3.6 38.4 72 -0.9 30.3
02:30 1022 30.18 851 25.13 3.2 37.7 74 -1.1 30.1
02:35 1022 30.18 851 25.13 3 37.4 65 -2.8 26.9
02:40 1022 30.18 851 25.13 3.6 38.4 69 -1.6 29.1
02:45 1022 30.18 851 25.13 3.3 37.9 71 -1.5 29.4
02:50 1022 30.18 851 25.13 2.8 37.1 73 -1.6 29.1
02:55 1022 30.18 851 25.13 2.5 36.5 72 -2 28.5
03:00 1022 30.18 851 25.13 2.5 36.4 71 -2.3 27.8
03:05 1022 30.18 851 25.13 2.6 36.6 71 -2.1 28.2
03:10 1022 30.18 851 25.13 2.4 36.4 72 -2.2 28.1
03:15 1022 30.18 852 25.16 2.4 36.3 72 -2.1 28.2
03:20 1022 30.18 851 25.13 2.4 36.3 72 -2.1 28.2
03:25 1022 30.18 852 25.16 2.3 36.1 74 -1.9 28.6
03:30 1022 30.18 852 25.16 1.5 34.7 78 -1.9 28.6
03:35 1022 30.18 851 25.13 1 33.8 79 -2.2 28.1
03:40 1022 30.18 851 25.13 1 33.8 79 -2.3 27.9
03:45 1022 30.18 851 25.13 1.1 33.9 80 -2.1 28.3
03:50 1022 30.18 852 25.16 1 33.7 80 -2.2 28.1
03:55 1022 30.18 851 25.13 1.1 34 80 -2 28.4
04:00 1022 30.18 852 25.16 1.2 34.2 80 -1.8 28.7
04:05 1023 30.21 852 25.16 0.9 33.6 75 -3.1 26.5
04:10 1022 30.18 852 25.16 1.3 34.3 74 -2.9 26.8
04:15 1023 30.21 852 25.16 1.1 33.9 74 -3 26.6
04:20 1023 30.21 852 25.16 1.1 34 73 -3.2 26.2
04:25 1023 30.21 852 25.16 1.2 34.1 75 -2.8 26.9
04:30 1023 30.21 852 25.16 1.1 34 76 -2.7 27.1
04:35 1023 30.21 852 25.16 1.1 33.9 76 -2.7 27.1
04:40 1023 30.21 852 25.16 1.1 34 76 -2.7 27.1
04:45 1023 30.21 852 25.16 1.5 34.7 75 -2.5 27.5
04:50 1023 30.21 852 25.16 1.5 34.6 75 -2.5 27.5
04:55 1023 30.21 852 25.16 1.4 34.5 74 -2.7 27.2
05:00 1023 30.21 852 25.16 1.4 34.6 76 -2.4 27.7
05:05 1023 30.21 852 25.16 1.4 34.6 75 -2.5 27.4
05:10 1023 30.21 852 25.16 1.3 34.3 75 -2.6 27.2
05:15 1023 30.21 852 25.16 1.1 34 77 -2.5 27.5
05:20 1023 30.21 852 25.16 0.9 33.7 78 -2.5 27.4
05:25 1023 30.21 852 25.16 0.9 33.7 77 -2.7 27.2
05:30 1023 30.21 852 25.16 1.3 34.3 75 -2.6 27.3
05:35 1023 30.21 852 25.16 1.1 34 76 -2.6 27.4
05:40 1023 30.21 852 25.16 0.7 33.2 78 -2.7 27.1
05:45 1023 30.21 852 25.16 0.1 32.1 79 -3.1 26.4
05:50 1023 30.21 852 25.16 0.3 32.6 77 -3.2 26.2
05:55 1023 30.21 852 25.16 0.2 32.4 79 -3 26.5
06:00 1023 30.21 852 25.16 0.2 32.3 78 -3.2 26.3
06:05 1023 30.21 853 25.19 0.2 32.3 76 -3.5 25.7
06:10 1023 30.21 853 25.19 0.2 32.4 77 -3.4 25.9
06:15 1023 30.21 853 25.19 0.3 32.5 75 -3.6 25.5
06:20 1024 30.24 853 25.19 -0 32 77 -3.5 25.7
06:25 1024 30.24 853 25.19 -0.1 31.9 76 -3.8 25.2
06:30 1024 30.24 853 25.19 -0.2 31.7 78 -3.6 25.5
06:35 1024 30.24 853 25.19 -0.2 31.6 77 -3.7 25.3
06:40 1024 30.24 853 25.19 0.3 32.5 76 -3.6 25.6
06:45 1024 30.24 853 25.19 0.4 32.8 75 -3.5 25.7
06:50 1024 30.24 853 25.19 0.3 32.5 76 -3.6 25.6
06:55 1024 30.24 853 25.19 0 32 77 -3.6 25.5
07:00 1024 30.24 853 25.19 0.1 32.1 75 -3.8 25.1
07:05 1024 30.24 853 25.19 0.2 32.4 75 -3.7 25.4
07:10 1024 30.24 853 25.19 -0 32 77 -3.6 25.5
07:15 1024 30.24 853 25.19 -0.2 31.6 78 -3.7 25.4
07:20 1024 30.24 853 25.19 -0.3 31.5 78 -3.6 25.5
07:25 1024 30.24 853 25.19 -0.2 31.6 78 -3.6 25.5
07:30 1024 30.24 853 25.19 -0.2 31.6 78 -3.7 25.4
07:35 1024 30.24 853 25.19 -0.2 31.7 77 -3.7 25.4
07:40 1024 30.24 853 25.19 -0.1 31.9 77 -3.6 25.6
07:45 1024 30.24 853 25.19 0.2 32.3 76 -3.5 25.7
07:50 1024 30.24 853 25.19 0.5 32.9 75 -3.4 25.9
07:55 1024 30.24 853 25.19 0.5 32.9 76 -3.3 26
08:00 1024 30.24 853 25.19 0.6 33 75 -3.4 25.9
08:05 1024 30.24 853 25.19 0.7 33.3 74 -3.4 25.9
08:10 1024 30.24 853 25.19 1 33.8 74 -3.1 26.4
08:15 1024 30.24 853 25.19 1.2 34.2 72 -3.3 26.1
08:20 1024 30.24 853 25.19 1.4 34.5 71 -3.2 26.2
08:25 1024 30.24 853 25.19 1.3 34.3 72 -3.2 26.2
08:30 1024 30.24 853 25.19 1.6 34.9 71 -3.2 26.3
08:35 1024 30.24 853 25.19 1.9 35.5 69 -3.2 26.3
08:40 1024 30.24 853 25.19 2.3 36.1 67 -3.2 26.2
08:45 1024 30.24 853 25.19 2.5 36.6 66 -3.2 26.3
08:50 1024 30.24 853 25.19 2.9 37.1 65 -3 26.6
08:55 1024 30.24 853 25.19 3.5 38.3 62 -3.1 26.5
09:00 1024 30.24 853 25.19 3.4 38.2 63 -2.9 26.8
09:05 1024 30.24 853 25.19 3.7 38.6 62 -2.8 26.9
09:10 1024 30.24 853 25.19 3.7 38.7 62 -2.8 26.9
09:15 1024 30.24 853 25.19 4.1 39.5 62 -2.4 27.7
09:20 1024 30.24 853 25.19 5.1 41.1 57 -2.7 27.1
09:25 1024 30.24 853 25.19 5 40.9 59 -2.4 27.6
09:30 1024 30.24 853 25.19 5.1 41.2 56 -3 26.6
09:35 1024 30.24 853 25.19 4.9 40.8 56 -3 26.5
09:40 1024 30.24 853 25.19 4.9 40.8 55 -3.3 26
09:45 1024 30.24 853 25.19 5.1 41.2 55 -3.1 26.4
09:50 1024 30.24 853 25.19 4.8 40.7 57 -3 26.6
09:55 1024 30.24 853 25.19 5.4 41.6 53 -3.5 25.6
10:00 1024 30.24 853 25.19 5.7 42.3 54 -2.7 27.1
10:05 1024 30.24 853 25.19 5.2 41.3 55 -3.1 26.5
10:10 1024 30.24 853 25.19 5.3 41.5 55 -3.1 26.4
10:15 1024 30.24 854 25.22 6.1 42.9 51 -3.4 25.9
10:20 1024 30.24 854 25.22 6.7 44.1 48 -3.6 25.6
10:25 1024 30.24 854 25.22 7.2 45 46 -3.7 25.3
10:30 1024 30.24 854 25.22 7.1 44.7 45 -4 24.7
10:35 1024 30.24 854 25.22 7 44.6 44 -4.5 23.9
10:40 1024 30.24 853 25.19 7.2 45 44 -4.3 24.3
10:45 1024 30.24 853 25.19 7.3 45.2 44 -4 24.7
10:50 1024 30.24 853 25.19 7.7 45.9 43 -4.2 24.5
10:55 1024 30.24 853 25.19 7.8 46.1 43 -4 24.8
11:00 1024 30.24 853 25.19 7.9 46.2 46 -3.1 26.5
11:05 1024 30.24 853 25.19 7.5 45.4 47 -3.1 26.5
11:10 1024 30.24 853 25.19 7.1 44.8 47 -3.4 25.9
11:15 1024 30.24 853 25.19 7.2 45 47 -3.5 25.8
11:20 1024 30.24 853 25.19 7.3 45.1 46 -3.6 25.4
11:25 1024 30.24 853 25.19 7.7 45.9 43 -4.1 24.6
11:30 1024 30.24 853 25.19 7.9 46.1 42 -4.4 24.1
11:35 1024 30.24 853 25.19 8 46.3 43 -4 24.9
11:40 1024 30.24 853 25.19 8.3 47 43 -3.6 25.4
11:45 1024 30.24 853 25.19 8 46.3 49 -1.9 28.5
11:50 1024 30.24 853 25.19 6.8 44.2 53 -2.2 28
11:55 1024 30.24 853 25.19 6.7 44.1 53 -2 28.3
12:00 1024 30.24 853 25.19 6.7 44.1 53 -2.3 27.9
12:05 1024 30.24 853 25.19 6.7 44.1 51 -2.7 27.1
12:10 1023 30.21 853 25.19 6.6 44 51 -2.8 27
12:15 1023 30.21 853 25.19 6.6 43.8 53 -2.4 27.6
12:20 1023 30.21 853 25.19 7 44.6 48 -3.3 26
12:25 1023 30.21 853 25.19 7.3 45.1 52 -2 28.4
12:30 1023 30.21 852 25.16 7.2 44.9 53 -1.6 29.1
12:35 1023 30.21 852 25.16 7 44.6 51 -2.5 27.4
12:40 1023 30.21 852 25.16 7 44.6 51 -2.4 27.7
12:45 1023 30.21 852 25.16 6.8 44.3 49 -3 26.6
12:50 1023 30.21 852 25.16 6.3 43.4 50 -3.3 26
12:55 1023 30.21 853 25.19 6.3 43.4 45 -4.6 23.7
13:00 1023 30.21 853 25.19 6.5 43.6 45 -4.6 23.8
13:05 1023 30.21 853 25.19 6.3 43.3 46 -4.5 23.9
13:10 1023 30.21 853 25.19 6 42.8 47 -4.6 23.7
13:15 1023 30.21 853 25.19 5.9 42.6 46 -4.7 23.5
13:20 1023 30.21 853 25.19 5.8 42.4 47 -4.6 23.8
13:25 1023 30.21 853 25.19 5.9 42.7 48 -4.3 24.3
13:30 1023 30.21 853 25.19 6.3 43.3 44 -4.9 23.1
13:35 1023 30.21 852 25.16 6.5 43.6 45 -4.5 23.9
13:40 1023 30.21 852 25.16 6.4 43.6 43 -5.2 22.6
13:45 1023 30.21 852 25.16 6 42.8 57 -1.8 28.8
13:50 1023 30.21 852 25.16 5 40.9 62 -1.7 28.9
13:55 1023 30.21 852 25.16 4.5 40.2 63 -2 28.4
14:00 1023 30.21 852 25.16 4.8 40.6 61 -2 28.4
14:05 1023 30.21 852 25.16 4.8 40.6 60 -2.3 27.8
14:10 1023 30.21 852 25.16 4.9 40.8 59 -2.4 27.7
14:15 1023 30.21 852 25.16 4.9 40.9 57 -2.8 26.9
14:20 1023 30.21 852 25.16 5 40.9 58 -2.7 27.2
14:25 1023 30.21 852 25.16 4.7 40.5 59 -2.5 27.5
14:30 1023 30.21 852 25.16 4.7 40.5 60 -2.4 27.6
14:35 1023 30.21 852 25.16 4.7 40.4 59 -2.6 27.4
14:40 1023 30.21 852 25.16 4.6 40.3 59 -2.7 27.2
14:45 1023 30.21 852 25.16 4.9 40.8 59 -2.5 27.4
14:50 1023 30.21 852 25.16 5.1 41.2 57 -2.6 27.2
14:55 1023 30.21 852 25.16 5.2 41.4 52 -3.7 25.3
15:00 1023 30.21 852 25.16 5.3 41.6 54 -3.3 26
15:05 1023 30.21 852 25.16 5.6 42 54 -3.1 26.5
15:10 1023 30.21 852 25.16 5.5 42 55 -2.8 26.9
15:15 1023 30.21 852 25.16 5.5 41.9 56 -2.6 27.4
15:20 1023 30.21 852 25.16 5.5 41.9 57 -2.2 28
15:25 1023 30.21 853 25.19 5.5 41.8 57 -2.3 27.8
15:30 1023 30.21 853 25.19 5.3 41.6 59 -2.1 28.2
15:35 1024 30.24 853 25.19 5.2 41.3 60 -1.9 28.6
15:40 1024 30.24 853 25.19 5 41 61 -1.9 28.5
15:45 1024 30.24 853 25.19 4.9 40.8 61 -2.1 28.2
15:50 1024 30.24 853 25.19 4.7 40.5 61 -2.1 28.1
15:55 1023 30.21 853 25.19 4.7 40.4 61 -2.2 28.1
16:00 1023 30.21 853 25.19 4.6 40.2 63 -2 28.5
16:05 1023 30.21 852 25.16 4.5 40 61 -2.4 27.7
16:10 1023 30.21 852 25.16 4.4 39.8 60 -2.6 27.3
16:15 1023 30.21 852 25.16 4.3 39.8 61 -2.5 27.5
16:20 1023 30.21 852 25.16 4 39.3 63 -2.5 27.6
16:25 1023 30.21 852 25.16 3.9 39 62 -2.7 27.2
16:30 1023 30.21 852 25.16 4 39.1 61 -2.9 26.8
16:35 1023 30.21 852 25.16 4 39.3 63 -2.3 27.8
16:40 1023 30.21 852 25.16 4 39.1 63 -2.4 27.6
16:45 1023 30.21 852 25.16 4 39.2 65 -2 28.5
16:50 1023 30.21 852 25.16 3.9 39 66 -1.8 28.7
16:55 1023 30.21 852 25.16 3.7 38.7 68 -1.6 29.1
17:00 1023 30.21 852 25.16 3.7 38.7 68 -1.7 29
17:05 1023 30.21 852 25.16 3.7 38.7 70 -1.3 29.6
17:10 1023 30.21 852 25.16 3.6 38.5 72 -1 30.2
17:15 1023 30.21 852 25.16 3.5 38.3 71 -1.4 29.5
17:20 1023 30.21 852 25.16 3.6 38.5 73 -0.8 30.6
17:25 1023 30.21 852 25.16 3.5 38.3 75 -0.5 31
17:30 1023 30.21 852 25.16 3.5 38.3 75 -0.4 31.2
17:35 1023 30.21 852 25.16 3.5 38.3 75 -0.5 31.2
17:40 1023 30.21 852 25.16 3.6 38.4 75 -0.5 31.1
17:45 1023 30.21 852 25.16 3.7 38.6 75 -0.4 31.3
17:50 1023 30.21 852 25.16 3.8 38.9 74 -0.4 31.2
17:55 1023 30.21 852 25.16 4 39.1 73 -0.4 31.3
18:00 1023 30.21 852 25.16 4 39.3 73 -0.3 31.4
18:05 1023 30.21 852 25.16 4.1 39.3 73 -0.3 31.5
18:10 1023 30.21 852 25.16 4.1 39.5 73 -0.3 31.5
18:15 1023 30.21 852 25.16 4.2 39.5 74 0 32
18:20 1023 30.21 852 25.16 4 39.2 75 -0 31.9
18:25 1023 30.21 852 25.16 4 39.2 75 0 32
18:30 1023 30.21 852 25.16 4 39.2 75 0 32.1
18:35 1023 30.21 852 25.16 4.1 39.3 75 0.1 32.2
18:40 1023 30.21 852 25.16 4.1 39.5 75 0.2 32.3
18:45 1023 30.21 852 25.16 4.2 39.6 74 0 32.1
18:50 1023 30.21 852 25.16 4.5 40 72 -0.1 31.8
18:55 1023 30.21 852 25.16 4.3 39.8 74 0.1 32.1
19:00 1023 30.21 852 25.16 4.1 39.4 76 0.3 32.5
19:05 1023 30.21 852 25.16 4 39.2 76 0.2 32.3
19:10 1023 30.21 852 25.16 4.1 39.5 75 0.1 32.2
19:15 1023 30.21 852 25.16 3.9 39.1 77 0.2 32.4
19:20 1023 30.21 852 25.16 3.9 38.9 77 0.1 32.3
19:25 1023 30.21 852 25.16 3.8 38.9 77 0.1 32.2
19:30 1023 30.21 852 25.16 3.9 39.1 76 0.1 32.2
19:35 1023 30.21 852 25.16 4 39.2 75 0.1 32.1
19:40 1023 30.21 852 25.16 4.1 39.4 76 0.2 32.4
19:45 1023 30.21 852 25.16 4.1 39.3 77 0.3 32.6
19:50 1022 30.18 852 25.16 4.1 39.3 77 0.4 32.7
19:55 1022 30.18 852 25.16 4.3 39.7 75 0.3 32.6
20:00 1022 30.18 852 25.16 4.3 39.8 77 0.6 33
20:05 1022 30.18 852 25.16 4.1 39.3 77 0.4 32.7
20:10 1022 30.18 852 25.16 4.1 39.3 77 0.4 32.6
20:15 1022 30.18 852 25.16 4 39.3 78 0.5 32.9
20:20 1022 30.18 852 25.16 4 39.1 79 0.6 33.1
20:25 1022 30.18 852 25.16 3.8 38.9 80 0.7 33.2
20:30 1022 30.18 852 25.16 3.7 38.6 81 0.6 33.1
20:35 1022 30.18 852 25.16 3.7 38.7 81 0.7 33.3
20:40 1022 30.18 851 25.13 3.7 38.6 81 0.7 33.2
20:45 1022 30.18 851 25.13 3.5 38.2 81 0.5 33
20:50 1022 30.18 851 25.13 3.7 38.6 80 0.6 33
20:55 1022 30.18 851 25.13 4.2 39.5 77 0.5 32.8
21:00 1022 30.18 851 25.13 4.5 40.2 76 0.7 33.3
21:05 1022 30.18 851 25.13 4.7 40.5 75 0.6 33.2
21:10 1022 30.18 852 25.16 4.8 40.7 75 0.8 33.4
21:15 1022 30.18 852 25.16 4.8 40.6 75 0.8 33.4
21:20 1022 30.18 852 25.16 5 41 74 0.7 33.3
21:25 1022 30.18 851 25.13 5.1 41.1 74 0.8 33.4
21:30 1022 30.18 851 25.13 5.1 41.2 73 0.8 33.4
21:35 1022 30.18 852 25.16 5.2 41.3 74 0.9 33.7
21:40 1023 30.21 852 25.16 5.3 41.5 73 0.7 33.3
21:45 1023 30.21 852 25.16 5.2 41.3 73 0.7 33.3
21:50 1023 30.21 852 25.16 5.4 41.7 72 0.7 33.3
21:55 1022 30.18 852 25.16 5.6 42.1 71 0.8 33.4
22:00 1023 30.21 852 25.16 5.7 42.3 70 0.8 33.4
22:05 1023 30.21 852 25.16 5.8 42.4 70 0.8 33.4
22:10 1023 30.21 852 25.16 5.8 42.5 70 0.8 33.4
22:15 1023 30.21 852 25.16 5.6 42.2 71 0.8 33.4
22:20 1023 30.21 852 25.16 5.7 42.3 71 0.9 33.5
22:25 1023 30.21 852 25.16 5.6 42.2 71 0.8 33.4
22:30 1023 30.21 852 25.16 5.7 42.2 70 0.6 33
22:35 1023 30.21 852 25.16 6.3 43.3 68 0.8 33.5
22:40 1023 30.21 852 25.16 6.3 43.3 69 1 33.8
22:45 1023 30.21 852 25.16 6.5 43.7 67 0.8 33.5
22:50 1023 30.21 852 25.16 6.7 44 66 0.8 33.4
22:55 1023 30.21 852 25.16 6.4 43.5 70 1.3 34.3
23:00 1022 30.18 852 25.16 5.8 42.5 70 0.7 33.3
23:05 1022 30.18 852 25.16 6.3 43.4 66 0.5 33
23:10 1023 30.21 852 25.16 6.8 44.2 66 0.8 33.5
23:15 1023 30.21 852 25.16 6.6 43.9 67 0.9 33.7
23:20 1023 30.21 852 25.16 6.8 44.2 66 0.8 33.5
23:25 1023 30.21 852 25.16 6.3 43.4 68 0.9 33.7
23:30 1023 30.21 852 25.16 6 42.8 69 0.8 33.5
23:35 1023 30.21 852 25.16 6 42.7 70 0.9 33.6
23:40 1023 30.21 852 25.16 6.4 43.5 66 0.6 33.1
23:45 1023 30.21 852 25.16 7.7 45.8 63 1.1 34
23:50 1023 30.21 852 25.16 8 46.3 63 1.3 34.3
23:55 1022 30.18 852 25.16 7.7 45.8 63 1.1 34
24:00 1022 30.18 852 25.16 7.2 45 65 1.2 34.2